Time;durP1;ratioP1;P1;durP2;ratioP2;P2;SDS_P1;SDS_P2;PMS_P1;PMS_P2;Temp;Humidity;BMP_temperature;BMP_pressure;BME280_temperature;BME280_humidity;BME280_pressure;Samples;Min_cycle;Max_cycle;Signal;HPM_P1;HPM_P2
2022/09/19 00:00:38;;;;;;;3.20;1.53;;;13.10;99.90;;;;;;4953374;28;20220;-88
2022/09/19 00:03:06;;;;;;;5.63;0.70;;;13.00;99.90;;;;;;4953526;28;20216;-88
2022/09/19 00:05:32;;;;;;;5.63;0.63;;;13.00;99.90;;;;;;4953656;28;20216;-88
2022/09/19 00:07:57;;;;;;;0.40;0.40;;;13.00;99.90;;;;;;4952910;28;20217;-89
2022/09/19 00:10:23;;;;;;;0.70;0.70;;;13.00;99.90;;;;;;4953028;28;20715;-89
2022/09/19 00:12:49;;;;;;;3.10;0.63;;;13.10;99.90;;;;;;4954005;28;20287;-89
2022/09/19 00:15:15;;;;;;;1.57;1.33;;;13.10;99.90;;;;;;4953175;28;20568;-89
2022/09/19 00:17:40;;;;;;;0.27;0.27;;;13.30;99.90;;;;;;4952963;28;20224;-88
2022/09/19 00:20:06;;;;;;;3.73;2.43;;;13.50;99.90;;;;;;4952986;28;20886;-88
2022/09/19 00:22:32;;;;;;;0.20;0.20;;;13.50;99.90;;;;;;4953568;28;20856;-90
2022/09/19 00:24:58;;;;;;;1.53;0.40;;;13.60;99.90;;;;;;4953809;28;20188;-89
2022/09/19 00:27:26;;;;;;;0.37;0.37;;;13.60;99.90;;;;;;4952936;28;20216;-88
2022/09/19 00:29:53;;;;;;;5.23;0.57;;;13.60;99.90;;;;;;4969086;28;20599;-89
2022/09/19 00:32:21;;;;;;;2.87;0.73;;;13.60;99.90;;;;;;4968914;28;20217;-89
2022/09/19 00:34:49;;;;;;;0.20;0.20;;;13.60;99.90;;;;;;4953388;28;20303;-89
2022/09/19 00:37:18;;;;;;;0.47;0.43;;;13.70;99.90;;;;;;4984735;28;20192;-88
2022/09/19 00:39:44;;;;;;;0.47;0.37;;;13.70;99.90;;;;;;4969673;28;20220;-89
2022/09/19 00:42:16;;;;;;;2.27;0.83;;;13.70;99.90;;;;;;4952837;28;20216;-89
2022/09/19 00:44:41;;;;;;;4.03;0.73;;;13.80;99.90;;;;;;4968610;28;20590;-89
2022/09/19 00:47:24;;;;;;;2.77;1.00;;;13.80;99.90;;;;;;4968308;28;20232;-89
2022/09/19 00:49:54;;;;;;;2.37;0.70;;;13.90;99.90;;;;;;4968970;28;20328;-88
2022/09/19 00:52:42;;;;;;;1.10;0.50;;;13.90;99.90;;;;;;4968697;28;20199;-89
2022/09/19 00:55:08;;;;;;;0.10;0.10;;;13.90;99.90;;;;;;4985113;28;20193;-89
2022/09/19 00:57:43;;;;;;;0.40;0.40;;;13.80;99.90;;;;;;4970170;28;20718;-89
2022/09/19 01:00:09;;;;;;;0.57;0.13;;;13.90;99.90;;;;;;4967869;28;20243;-88
2022/09/19 01:02:36;;;;;;;1.07;0.17;;;13.90;99.90;;;;;;4960995;28;20204;-88
2022/09/19 01:05:03;;;;;;;2.13;0.87;;;13.90;99.90;;;;;;4952330;28;20208;-88
2022/09/19 01:07:44;;;;;;;0.77;0.77;;;14.00;99.90;;;;;;4952435;28;20188;-88
2022/09/19 01:10:13;;;;;;;0.20;0.20;;;14.10;99.90;;;;;;4968703;28;20251;-88
2022/09/19 01:12:56;;;;;;;4.73;1.03;;;14.00;99.90;;;;;;4969117;28;20220;-88
2022/09/19 01:15:42;;;;;;;1.23;0.87;;;14.10;99.90;;;;;;4967996;28;20221;-89
2022/09/19 01:18:09;;;;;;;7.83;1.17;;;14.10;99.90;;;;;;4964084;28;20295;-88
2022/09/19 01:20:50;;;;;;;1.03;0.20;;;14.00;99.90;;;;;;4968399;28;20270;-88
2022/09/19 01:23:52;;;;;;;6.43;0.57;;;14.00;99.90;;;;;;4967639;28;20220;-88
2022/09/19 01:27:05;;;;;;;0.20;0.20;;;13.90;99.90;;;;;;4968839;28;20219;-88
2022/09/19 01:29:44;;;;;;;0.70;0.47;;;13.80;99.90;;;;;;4967868;28;20240;-89
2022/09/19 01:32:18;;;;;;;1.50;0.50;;;13.90;99.90;;;;;;4968156;28;20259;-89
2022/09/19 01:34:57;;;;;;;6.03;0.63;;;13.90;99.90;;;;;;4984094;28;20242;-88
2022/09/19 01:37:32;;;;;;;0.67;0.47;;;13.90;99.90;;;;;;4967931;28;20219;-88
2022/09/19 01:40:01;;;;;;;0.47;0.30;;;13.90;99.90;;;;;;4968253;28;20192;-88
2022/09/19 01:42:27;;;;;;;0.50;0.50;;;14.00;99.90;;;;;;4967228;28;20224;-88
2022/09/19 01:44:53;;;;;;;2.43;0.70;;;14.10;99.90;;;;;;4951662;28;20541;-88
2022/09/19 01:47:52;;;;;;;4.23;0.73;;;14.20;99.90;;;;;;4951663;28;20693;-89
2022/09/19 01:50:48;;;;;;;2.93;0.70;;;14.20;99.90;;;;;;4983578;28;20330;-88
2022/09/19 01:53:21;;;;;;;0.13;0.13;;;14.20;99.90;;;;;;4966880;28;20230;-88
2022/09/19 01:56:15;;;;;;;2.87;0.33;;;14.20;99.90;;;;;;4982460;28;20216;-89
2022/09/19 01:58:54;;;;;;;1.70;1.10;;;14.10;99.90;;;;;;4967607;28;20302;-89
2022/09/19 02:01:35;;;;;;;2.23;1.73;;;14.10;99.90;;;;;;4983623;28;20504;-88
2022/09/19 02:04:25;;;;;;;1.80;0.63;;;14.20;99.90;;;;;;4969005;28;20180;-88
2022/09/19 02:07:08;;;;;;;1.40;0.50;;;14.20;99.90;;;;;;4968721;28;20231;-88
2022/09/19 02:09:57;;;;;;;1.23;0.90;;;14.20;99.90;;;;;;4967211;28;20240;-89
2022/09/19 02:12:25;;;;;;;12.53;1.90;;;14.20;99.90;;;;;;4983400;28;20735;-90
2022/09/19 02:14:54;;;;;;;5.70;1.20;;;14.10;99.90;;;;;;4969079;28;20231;-88
2022/09/19 02:17:31;;;;;;;1.33;0.30;;;14.10;99.90;;;;;;4967361;28;20711;-89
2022/09/19 02:19:59;;;;;;;0.27;0.27;;;14.10;99.90;;;;;;4966828;28;20215;-88
2022/09/19 02:22:47;;;;;;;2.27;0.93;;;14.10;99.90;;;;;;4966953;28;20189;-89
2022/09/19 02:25:17;;;;;;;1.03;0.70;;;13.90;99.90;;;;;;4968104;28;20176;-88
2022/09/19 02:27:49;;;;;;;0.63;0.60;;;13.80;99.90;;;;;;4967322;28;20212;-88
2022/09/19 02:30:19;;;;;;;0.30;0.20;;;13.90;99.90;;;;;;4968246;28;20709;-88
2022/09/19 02:32:49;;;;;;;0.30;0.30;;;13.80;99.90;;;;;;4967354;28;20705;-88
2022/09/19 02:35:24;;;;;;;0.10;0.10;;;13.90;99.90;;;;;;4967379;28;20235;-88
2022/09/19 02:38:01;;;;;;;7.47;0.73;;;13.90;99.90;;;;;;4966879;28;20251;-88
2022/09/19 02:40:55;;;;;;;0.23;0.23;;;13.90;99.90;;;;;;4966991;28;20193;-90
2022/09/19 02:43:36;;;;;;;1.47;0.43;;;13.90;99.90;;;;;;4967237;28;20191;-88
2022/09/19 02:46:26;;;;;;;0.60;0.40;;;13.90;99.90;;;;;;4967965;28;20188;-88
2022/09/19 02:48:58;;;;;;;1.60;0.60;;;14.00;99.90;;;;;;4967210;28;20239;-89
2022/09/19 02:51:37;;;;;;;9.17;0.93;;;13.90;99.90;;;;;;4967320;28;20693;-88
2022/09/19 02:54:16;;;;;;;4.43;0.70;;;14.10;99.90;;;;;;4966988;28;20723;-89
2022/09/19 02:56:43;;;;;;;0.57;0.10;;;14.20;99.90;;;;;;4967153;28;20227;-90
2022/09/19 02:59:16;;;;;;;1.17;0.50;;;14.30;99.90;;;;;;4927830;28;20220;-89
2022/09/19 03:01:46;;;;;;;0.30;0.30;;;14.30;99.90;;;;;;4983453;28;20213;-89
2022/09/19 03:04:16;;;;;;;3.67;0.83;;;14.30;99.90;;;;;;4967298;28;20192;-88
2022/09/19 03:07:11;;;;;;;0.10;0.10;;;14.30;99.90;;;;;;4968299;28;20684;-88
2022/09/19 03:09:41;;;;;;;6.73;1.40;;;14.20;99.90;;;;;;4986479;28;20236;-88
2022/09/19 03:12:23;;;;;;;0.73;0.27;;;14.00;99.90;;;;;;4954722;28;20213;-88
2022/09/19 03:14:58;;;;;;;0.20;0.20;;;14.00;99.90;;;;;;4970485;28;20228;-88
2022/09/19 03:17:35;;;;;;;6.83;0.90;;;14.00;99.90;;;;;;4955301;28;20224;-88
2022/09/19 03:20:01;;;;;;;0.73;0.20;;;13.90;99.90;;;;;;4970359;28;20239;-89
2022/09/19 03:22:26;;;;;;;1.83;0.83;;;14.00;99.90;;;;;;4954269;28;21208;-89
2022/09/19 03:24:52;;;;;;;0.10;0.10;;;14.00;99.90;;;;;;4938973;28;20193;-90
2022/09/19 03:27:18;;;;;;;1.90;0.63;;;13.90;99.90;;;;;;4954355;28;20220;-89
2022/09/19 03:29:44;;;;;;;20.77;1.00;;;13.90;99.90;;;;;;4954222;28;20565;-90
2022/09/19 03:32:10;;;;;;;2.47;0.83;;;13.90;99.90;;;;;;4954471;28;20232;-89
2022/09/19 03:34:37;;;;;;;1.13;0.47;;;13.80;99.90;;;;;;4953881;28;20323;-88
2022/09/19 03:37:03;;;;;;;3.00;0.67;;;13.80;99.90;;;;;;4970696;28;20189;-89
2022/09/19 03:39:28;;;;;;;3.70;0.53;;;13.90;99.90;;;;;;4969361;28;20224;-89
2022/09/19 03:41:55;;;;;;;2.33;0.47;;;13.90;99.90;;;;;;4953914;28;20221;-89
2022/09/19 03:44:21;;;;;;;1.97;0.93;;;13.80;99.90;;;;;;4970088;28;20685;-89
2022/09/19 03:46:48;;;;;;;2.60;0.60;;;13.80;99.90;;;;;;4954362;28;20240;-88
2022/09/19 03:49:14;;;;;;;1.27;0.60;;;13.80;99.90;;;;;;4969706;28;20212;-90
2022/09/19 03:51:40;;;;;;;1.67;0.83;;;13.90;99.90;;;;;;4954443;28;20553;-88
2022/09/19 03:54:06;;;;;;;1.33;0.93;;;13.80;99.90;;;;;;4953717;28;20236;-88
2022/09/19 03:56:32;;;;;;;0.30;0.30;;;13.80;99.90;;;;;;4969761;28;20224;-88
2022/09/19 03:58:58;;;;;;;0.10;0.10;;;13.90;99.90;;;;;;4968584;28;20220;-90
2022/09/19 04:01:24;;;;;;;2.10;1.10;;;13.90;99.90;;;;;;4954030;28;20620;-88
2022/09/19 04:03:51;;;;;;;1.70;1.60;;;13.80;99.90;;;;;;4954289;28;20688;-89
2022/09/19 04:06:17;;;;;;;2.97;0.67;;;13.80;99.90;;;;;;4953426;28;20279;-88
2022/09/19 04:08:43;;;;;;;2.90;0.97;;;13.80;99.90;;;;;;4968816;28;20240;-88
2022/09/19 04:11:09;;;;;;;2.27;0.50;;;13.80;99.90;;;;;;4953139;28;20220;-89
2022/09/19 04:13:35;;;;;;;0.50;0.50;;;13.70;99.90;;;;;;4953782;28;20212;-89
2022/09/19 04:16:02;;;;;;;0.10;0.10;;;13.70;99.90;;;;;;4954305;28;20669;-89
2022/09/19 04:18:28;;;;;;;1.87;1.77;;;13.80;99.90;;;;;;4951605;28;20323;-88
2022/09/19 04:20:55;;;;;;;4.47;0.97;;;13.70;99.90;;;;;;4953119;28;20698;-88
2022/09/19 04:23:23;;;;;;;0.80;0.80;;;13.80;99.90;;;;;;4953156;28;20224;-87
2022/09/19 04:25:48;;;;;;;0.10;0.10;;;13.90;99.90;;;;;;4953375;28;20223;-88
2022/09/19 04:28:17;;;;;;;1.50;0.27;;;13.90;99.90;;;;;;4952800;28;20193;-89
2022/09/19 04:30:44;;;;;;;3.10;1.03;;;13.90;99.90;;;;;;4953764;28;20655;-88
2022/09/19 04:33:12;;;;;;;0.07;0.07;;;13.90;99.90;;;;;;4952924;28;20224;-89
2022/09/19 04:35:39;;;;;;;4.30;1.70;;;13.80;99.90;;;;;;4968544;28;20279;-89
2022/09/19 04:38:07;;;;;;;5.50;0.80;;;13.90;99.90;;;;;;4985299;28;20251;-87
2022/09/19 04:40:40;;;;;;;0.20;0.20;;;13.80;99.90;;;;;;4969136;28;20176;-88
2022/09/19 04:43:09;;;;;;;1.60;0.43;;;14.00;99.90;;;;;;4953697;28;20279;-88
2022/09/19 04:45:36;;;;;;;0.37;0.30;;;14.00;99.90;;;;;;4969975;28;20220;-90
2022/09/19 04:48:05;;;;;;;0.30;0.30;;;14.00;99.90;;;;;;4968797;28;20327;-87
2022/09/19 04:50:32;;;;;;;2.83;0.13;;;14.00;99.90;;;;;;4952797;28;20224;-88
2022/09/19 04:52:58;;;;;;;0.50;0.50;;;14.00;99.90;;;;;;4968984;28;20693;-89
2022/09/19 04:55:25;;;;;;;2.13;1.40;;;14.00;99.90;;;;;;4968683;28;20185;-87
2022/09/19 04:57:51;;;;;;;6.27;1.40;;;13.90;99.90;;;;;;4953264;28;20612;-87
2022/09/19 05:00:37;;;;;;;0.10;0.10;;;13.80;99.90;;;;;;4952284;28;20228;-88
2022/09/19 05:03:11;;;;;;;0.17;0.17;;;13.80;99.90;;;;;;4933932;28;20216;-88
2022/09/19 05:05:44;;;;;;;0.40;0.40;;;13.80;99.90;;;;;;4953002;28;20222;-88
2022/09/19 05:08:12;;;;;;;1.40;0.83;;;13.80;99.90;;;;;;4953038;28;20244;-88
2022/09/19 05:10:38;;;;;;;1.43;0.37;;;14.10;99.90;;;;;;4970051;28;20209;-88
2022/09/19 05:13:04;;;;;;;2.43;0.43;;;14.20;99.90;;;;;;4968825;28;20538;-88
2022/09/19 05:15:29;;;;;;;1.03;0.37;;;14.00;99.90;;;;;;4952232;28;20243;-88
2022/09/19 05:17:55;;;;;;;0.30;0.27;;;13.80;99.90;;;;;;4952240;28;20243;-89
2022/09/19 05:20:25;;;;;;;0.40;0.13;;;13.80;99.90;;;;;;4951788;28;20251;-89
2022/09/19 05:22:58;;;;;;;1.67;0.30;;;13.80;99.90;;;;;;4968597;28;20689;-88
2022/09/19 05:25:28;;;;;;;0.60;0.50;;;13.80;99.90;;;;;;4967655;28;20185;-88
2022/09/19 05:27:57;;;;;;;3.90;0.57;;;13.70;99.90;;;;;;4952618;28;20683;-87
2022/09/19 05:30:26;;;;;;;1.63;0.73;;;13.70;99.90;;;;;;4967602;28;20221;-88
2022/09/19 05:32:51;;;;;;;0.20;0.20;;;13.70;99.90;;;;;;4952197;28;20287;-88
2022/09/19 05:35:18;;;;;;;2.73;0.63;;;13.70;99.90;;;;;;4951581;28;20224;-89
2022/09/19 05:37:47;;;;;;;0.23;0.17;;;13.60;99.90;;;;;;4969111;28;20629;-88
2022/09/19 05:40:13;;;;;;;0.03;0.03;;;13.60;99.90;;;;;;4951956;28;20199;-87
2022/09/19 05:42:40;;;;;;;5.60;1.07;;;13.70;99.90;;;;;;4951958;28;20255;-88
2022/09/19 05:45:07;;;;;;;0.40;0.40;;;13.70;99.90;;;;;;4951166;28;20708;-89
2022/09/19 05:47:33;;;;;;;11.83;0.60;;;13.70;99.90;;;;;;4951642;28;20240;-88
2022/09/19 05:49:59;;;;;;;1.13;0.57;;;13.70;99.90;;;;;;4934429;28;20271;-88
2022/09/19 05:55:10;;;;;;;1.30;0.63;;;13.70;99.90;;;;;;4948342;28;20236;-88
2022/09/19 05:57:36;;;;;;;0.10;0.10;;;13.80;99.90;;;;;;4951257;28;20566;-89
2022/09/19 06:00:03;;;;;;;5.70;1.43;;;13.80;99.90;;;;;;4967004;28;20303;-89
2022/09/19 06:02:28;;;;;;;1.67;0.70;;;13.90;99.90;;;;;;4950883;28;20221;-90
2022/09/19 06:04:54;;;;;;;3.87;0.90;;;14.00;99.90;;;;;;4951737;28;20226;-91
2022/09/19 06:07:23;;;;;;;0.70;0.70;;;14.00;99.90;;;;;;4952122;28;20763;-90
2022/09/19 06:09:52;;;;;;;1.63;0.40;;;14.10;99.90;;;;;;4952456;28;20701;-90
2022/09/19 06:12:19;;;;;;;0.70;0.47;;;14.10;99.90;;;;;;4952317;28;20236;-90
2022/09/19 06:14:45;;;;;;;0.20;0.20;;;14.00;99.90;;;;;;4951642;28;20822;-91
2022/09/19 06:17:13;;;;;;;1.70;0.67;;;14.00;99.90;;;;;;4952036;28;20275;-92
2022/09/19 06:19:59;;;;;;;3.40;1.30;;;14.00;99.90;;;;;;4954713;28;20642;-89
2022/09/19 06:22:26;;;;;;;0.67;0.37;;;14.10;99.90;;;;;;4950942;28;20276;-91
2022/09/19 06:24:52;;;;;;;0.57;0.40;;;14.20;99.90;;;;;;4951521;28;20177;-89
2022/09/19 06:27:18;;;;;;;3.23;1.27;;;14.10;99.90;;;;;;4950972;28;20229;-87
2022/09/19 06:29:43;;;;;;;1.50;0.63;;;14.10;99.90;;;;;;4934318;28;20637;-89
2022/09/19 06:32:10;;;;;;;1.80;1.13;;;14.10;99.90;;;;;;4951314;28;20224;-90
2022/09/19 06:34:35;;;;;;;0.27;0.23;;;14.00;99.90;;;;;;4951780;28;20228;-90
2022/09/19 06:37:01;;;;;;;3.40;0.50;;;14.10;99.90;;;;;;4951977;28;20185;-91
2022/09/19 06:39:27;;;;;;;0.20;0.20;;;14.10;99.90;;;;;;4951204;28;20208;-90
2022/09/19 06:41:54;;;;;;;0.17;0.17;;;14.10;99.90;;;;;;4952809;28;20217;-92
2022/09/19 06:44:20;;;;;;;1.00;0.67;;;14.10;99.90;;;;;;4955474;28;20264;-90
2022/09/19 06:46:45;;;;;;;1.00;0.40;;;14.20;99.90;;;;;;4971533;28;20231;-93
2022/09/19 06:49:11;;;;;;;0.40;0.40;;;14.10;99.90;;;;;;4955852;28;20208;-90
2022/09/19 06:51:37;;;;;;;0.10;0.10;;;14.10;99.90;;;;;;4955308;28;20308;-91
2022/09/19 06:54:03;;;;;;;5.37;0.77;;;14.10;99.90;;;;;;4955748;28;20711;-91
2022/09/19 06:56:29;;;;;;;3.67;1.20;;;14.70;99.90;;;;;;4955524;28;20223;-89
2022/09/19 06:58:55;;;;;;;1.43;0.77;;;15.60;99.90;;;;;;4955153;28;20212;-89
2022/09/19 07:01:22;;;;;;;13.83;0.63;;;16.30;99.90;;;;;;4955027;28;20207;-92
2022/09/19 07:03:48;;;;;;;1.37;1.13;;;16.80;99.90;;;;;;4955939;28;20193;-92
2022/09/19 07:06:14;;;;;;;2.37;0.70;;;17.10;99.90;;;;;;4955198;28;20215;-90
2022/09/19 07:08:40;;;;;;;1.47;0.73;;;17.60;99.90;;;;;;4970876;28;20729;-88
2022/09/19 07:11:05;;;;;;;0.83;0.70;;;17.90;99.90;;;;;;4955577;28;20233;-88
2022/09/19 07:13:31;;;;;;;4.83;0.50;;;17.40;99.90;;;;;;4954815;28;20185;-88
2022/09/19 07:16:02;;;;;;;4.27;0.93;;;17.10;99.90;;;;;;4955886;28;20630;-89
2022/09/19 07:18:28;;;;;;;5.00;0.80;;;17.40;99.90;;;;;;4955137;28;20209;-87
2022/09/19 07:20:54;;;;;;;1.10;0.60;;;16.70;99.90;;;;;;4954803;28;20712;-89
2022/09/19 07:23:20;;;;;;;1.90;0.47;;;15.80;99.90;;;;;;4954592;28;20217;-88
2022/09/19 07:25:46;;;;;;;15.70;0.93;;;15.30;99.90;;;;;;4954927;28;20223;-87
2022/09/19 07:28:17;;;;;;;1.53;1.43;;;15.10;99.90;;;;;;4955185;28;20696;-88
2022/09/19 07:30:45;;;;;;;5.03;1.00;;;14.90;99.90;;;;;;4955201;28;20286;-91
2022/09/19 07:33:13;;;;;;;0.77;0.77;;;15.40;99.90;;;;;;4970743;28;20220;-91
2022/09/19 07:35:41;;;;;;;1.57;1.03;;;15.90;99.90;;;;;;4986753;28;20340;-91
2022/09/19 07:38:10;;;;;;;2.80;0.93;;;16.70;99.90;;;;;;4954227;28;20643;-91
2022/09/19 07:40:37;;;;;;;1.17;0.60;;;17.20;99.90;;;;;;4970542;28;20220;-91
2022/09/19 07:43:04;;;;;;;0.80;0.57;;;17.70;99.90;;;;;;4970897;28;20203;-88
2022/09/19 07:45:33;;;;;;;0.67;0.50;;;17.90;99.90;;;;;;4971609;28;20275;-88
2022/09/19 07:47:59;;;;;;;4.87;0.50;;;17.70;99.90;;;;;;4970271;28;20216;-88
2022/09/19 07:50:24;;;;;;;1.97;0.70;;;17.80;99.90;;;;;;4954251;28;20921;-87
2022/09/19 07:53:04;;;;;;;3.90;1.07;;;17.80;99.90;;;;;;4953049;28;20252;-88
2022/09/19 07:55:30;;;;;;;2.73;0.63;;;17.90;99.90;;;;;;4986334;28;20251;-88
2022/09/19 07:57:58;;;;;;;5.50;0.70;;;17.90;99.90;;;;;;4954379;28;20263;-88
2022/09/19 08:00:25;;;;;;;2.90;0.90;;;17.90;99.90;;;;;;4969924;28;20590;-88
2022/09/19 08:02:56;;;;;;;1.47;0.87;;;18.00;99.90;;;;;;4970957;28;20271;-88
2022/09/19 08:05:23;;;;;;;1.63;0.40;;;18.30;99.90;;;;;;4953734;28;20723;-88
2022/09/19 08:07:49;;;;;;;3.53;0.83;;;18.30;99.90;;;;;;4970228;28;20227;-87
2022/09/19 08:10:15;;;;;;;1.40;0.90;;;17.90;99.90;;;;;;4954070;28;20221;-88
2022/09/19 08:12:45;;;;;;;1.33;0.73;;;17.90;99.90;;;;;;4954509;28;20254;-88
2022/09/19 08:15:18;;;;;;;2.90;0.93;;;18.00;99.90;;;;;;4970099;28;20306;-88
2022/09/19 08:18:02;;;;;;;1.37;0.87;;;17.80;99.90;;;;;;4986200;28;20270;-88
2022/09/19 08:20:32;;;;;;;3.03;1.40;;;18.20;99.90;;;;;;4985759;28;20224;-87
2022/09/19 08:23:03;;;;;;;9.57;1.60;;;18.20;99.90;;;;;;4985505;28;20969;-85
2022/09/19 08:25:32;;;;;;;1.90;0.87;;;18.40;99.90;;;;;;4969303;28;20177;-89
2022/09/19 08:27:58;;;;;;;3.93;1.53;;;18.70;99.90;;;;;;4971770;28;20243;-88
2022/09/19 08:30:26;;;;;;;1.20;0.47;;;18.90;99.90;;;;;;4969532;28;20709;-89
2022/09/19 08:32:53;;;;;;;4.37;1.10;;;18.30;99.90;;;;;;4952159;28;20217;-87
2022/09/19 08:35:20;;;;;;;0.60;0.40;;;18.60;99.90;;;;;;4952779;28;20208;-88
2022/09/19 08:37:47;;;;;;;0.70;0.70;;;18.80;99.90;;;;;;4969566;28;20217;-88
2022/09/19 08:40:32;;;;;;;1.33;0.83;;;19.00;99.90;;;;;;4969758;28;20701;-87
2022/09/19 08:43:12;;;;;;;3.97;1.20;;;18.70;99.90;;;;;;4969388;28;20208;-88
2022/09/19 08:46:11;;;;;;;1.17;0.53;;;18.90;99.90;;;;;;4968520;28;20209;-88
2022/09/19 08:48:46;;;;;;;2.10;0.60;;;17.60;99.90;;;;;;4985013;28;20319;-88
2022/09/19 08:51:20;;;;;;;4.23;1.00;;;16.40;99.90;;;;;;4968911;28;20263;-87
2022/09/19 08:53:51;;;;;;;4.07;0.93;;;15.80;99.90;;;;;;4970296;28;20223;-88
2022/09/19 08:56:19;;;;;;;2.97;0.80;;;15.70;99.90;;;;;;4968969;28;20217;-87
2022/09/19 08:58:54;;;;;;;4.30;1.10;;;16.40;99.90;;;;;;4953048;28;20267;-87
2022/09/19 09:01:21;;;;;;;5.70;1.10;;;16.60;99.90;;;;;;4969373;28;20192;-89
2022/09/19 09:04:14;;;;;;;2.33;0.87;;;16.20;99.90;;;;;;4969311;28;20187;-87
2022/09/19 09:06:58;;;;;;;3.23;1.30;;;15.90;99.90;;;;;;4969292;28;20233;-88
2022/09/19 09:09:42;;;;;;;3.80;1.33;;;15.60;99.90;;;;;;4984667;28;20247;-89
2022/09/19 09:12:46;;;;;;;4.30;0.90;;;15.20;99.90;;;;;;4984624;28;21271;-88
2022/09/19 09:15:33;;;;;;;8.50;1.30;;;15.00;99.90;;;;;;4968182;28;20223;-88
2022/09/19 09:18:37;;;;;;;4.27;0.93;;;15.00;99.90;;;;;;4968456;28;20693;-88
2022/09/19 09:21:20;;;;;;;3.93;1.00;;;15.00;99.90;;;;;;4969994;28;20221;-90
2022/09/19 09:23:51;;;;;;;4.10;1.40;;;15.00;99.90;;;;;;4968768;28;20212;-90
2022/09/19 09:26:22;;;;;;;4.83;1.20;;;15.80;99.90;;;;;;4968506;28;20239;-90
2022/09/19 09:28:56;;;;;;;7.23;1.77;;;16.50;99.90;;;;;;4968301;28;20227;-89
2022/09/19 09:31:31;;;;;;;1.73;0.83;;;16.90;99.90;;;;;;4968138;28;20747;-89
2022/09/19 09:34:23;;;;;;;3.67;0.97;;;17.20;99.90;;;;;;4968583;28;20180;-89
2022/09/19 09:37:18;;;;;;;3.50;1.33;;;18.00;99.90;;;;;;4968617;28;20569;-90
2022/09/19 09:40:12;;;;;;;2.23;0.53;;;18.70;99.90;;;;;;4968202;28;20683;-89
2022/09/19 09:43:02;;;;;;;2.83;1.33;;;17.30;99.90;;;;;;4949636;28;20251;-88
2022/09/19 09:45:49;;;;;;;1.07;0.57;;;17.70;99.90;;;;;;4968141;28;20711;-89
2022/09/19 09:48:34;;;;;;;1.30;0.40;;;18.00;99.90;;;;;;4967819;28;20259;-89
2022/09/19 09:51:15;;;;;;;5.67;1.10;;;18.10;99.90;;;;;;4967437;28;20783;-89
2022/09/19 09:53:59;;;;;;;2.13;0.33;;;18.40;99.90;;;;;;4967750;28;20223;-89
2022/09/19 09:56:44;;;;;;;2.90;0.87;;;18.40;99.90;;;;;;4968123;28;21021;-90
2022/09/19 10:05:26;;;;;;;2.70;1.17;;;17.90;99.90;;;;;;4968281;28;20220;-89
2022/09/19 10:08:02;;;;;;;5.10;0.77;;;18.60;99.90;;;;;;4967860;28;20208;-89
2022/09/19 10:10:31;;;;;;;0.60;0.60;;;18.50;99.90;;;;;;4968852;28;20743;-88
2022/09/19 10:13:02;;;;;;;1.50;0.83;;;18.30;99.90;;;;;;4967905;28;20657;-90
2022/09/19 10:15:31;;;;;;;3.97;0.60;;;17.50;99.90;;;;;;4983571;28;20228;-89
2022/09/19 10:18:12;;;;;;;6.33;1.60;;;16.90;99.90;;;;;;4967698;28;20232;-89
2022/09/19 10:20:48;;;;;;;4.77;1.00;;;16.70;99.90;;;;;;4967785;28;20216;-88
2022/09/19 10:23:23;;;;;;;1.10;1.03;;;16.50;99.90;;;;;;4968111;28;20213;-88
2022/09/19 10:26:04;;;;;;;6.30;0.80;;;16.40;99.90;;;;;;4953312;28;20217;-90
2022/09/19 10:28:30;;;;;;;3.30;1.20;;;17.00;99.90;;;;;;4983624;28;20633;-90
2022/09/19 10:30:59;;;;;;;4.83;1.50;;;17.00;99.90;;;;;;4968700;28;20239;-88
2022/09/19 10:33:28;;;;;;;7.10;1.53;;;16.40;99.90;;;;;;4967510;28;20701;-90
2022/09/19 10:35:58;;;;;;;2.10;0.50;;;15.80;99.90;;;;;;4984064;28;20235;-90
2022/09/19 10:38:26;;;;;;;0.47;0.40;;;15.30;99.90;;;;;;4951683;28;20243;-89
2022/09/19 10:41:00;;;;;;;6.03;0.53;;;15.10;99.90;;;;;;4983333;28;20255;-89
2022/09/19 10:43:33;;;;;;;0.67;0.67;;;14.90;99.90;;;;;;4967910;28;20172;-88
2022/09/19 10:46:06;;;;;;;0.53;0.40;;;14.90;99.90;;;;;;4968830;28;20185;-89
2022/09/19 10:48:34;;;;;;;3.17;0.77;;;15.10;99.90;;;;;;4967619;28;20205;-89
2022/09/19 10:51:06;;;;;;;6.20;1.27;;;15.40;99.90;;;;;;4951825;28;20223;-89
2022/09/19 10:53:33;;;;;;;0.37;0.37;;;15.70;99.90;;;;;;4952671;28;20259;-89
2022/09/19 10:56:32;;;;;;;1.83;0.90;;;15.90;99.90;;;;;;4967574;28;20204;-89
2022/09/19 10:59:13;;;;;;;2.37;0.47;;;16.70;99.90;;;;;;4960217;28;20665;-90
2022/09/19 11:01:39;;;;;;;2.37;0.50;;;16.60;99.90;;;;;;4983636;28;20283;-89
2022/09/19 11:04:25;;;;;;;2.70;0.87;;;16.90;99.90;;;;;;4968421;28;20745;-90
2022/09/19 11:06:57;;;;;;;2.40;0.93;;;16.90;99.90;;;;;;4951669;28;20221;-89
2022/09/19 11:09:31;;;;;;;3.20;0.83;;;17.00;99.90;;;;;;4967364;28;20255;-91
2022/09/19 11:12:05;;;;;;;2.20;0.97;;;16.50;99.90;;;;;;4967391;28;20223;-90
2022/09/19 11:14:35;;;;;;;3.50;0.93;;;16.80;99.90;;;;;;4966847;28;20310;-89
2022/09/19 11:17:22;;;;;;;4.97;0.70;;;16.90;99.90;;;;;;4983834;28;20249;-89
2022/09/19 11:20:03;;;;;;;1.40;0.40;;;17.20;99.90;;;;;;4982956;28;20299;-90
2022/09/19 11:22:41;;;;;;;2.07;0.87;;;16.90;99.90;;;;;;4967606;28;20212;-90
2022/09/19 11:25:25;;;;;;;0.43;0.43;;;16.60;99.90;;;;;;4968064;28;20646;-90
2022/09/19 11:28:22;;;;;;;3.20;0.30;;;16.30;99.90;;;;;;4969257;28;20215;-90
2022/09/19 11:31:05;;;;;;;2.40;0.73;;;17.20;99.90;;;;;;4968249;28;20243;-89
2022/09/19 11:33:53;;;;;;;3.37;0.57;;;16.60;99.90;;;;;;4986626;28;20224;-90
2022/09/19 11:36:36;;;;;;;0.90;0.87;;;15.80;99.90;;;;;;4971436;28;20224;-90
2022/09/19 11:39:08;;;;;;;5.60;0.97;;;14.70;99.90;;;;;;4987733;28;20224;-89
2022/09/19 11:42:11;;;;;;;4.53;0.87;;;13.90;99.90;;;;;;4970758;28;20217;-89
2022/09/19 11:45:11;;;;;;;1.30;0.77;;;13.70;99.90;;;;;;4970901;28;20307;-90
2022/09/19 11:48:09;;;;;;;3.60;0.97;;;13.60;99.90;;;;;;4970520;28;20364;-92
2022/09/19 11:51:00;;;;;;;0.83;0.50;;;13.70;99.90;;;;;;4970826;28;20232;-91
2022/09/19 11:53:48;;;;;;;3.93;0.97;;;13.70;99.90;;;;;;4970908;28;20689;-92
2022/09/19 11:56:26;;;;;;;6.83;1.30;;;13.80;99.90;;;;;;4972034;28;20266;-93
2022/09/19 11:59:07;;;;;;;20.07;0.90;;;14.10;99.90;;;;;;4971175;28;20235;-91
2022/09/19 12:01:36;;;;;;;0.80;0.80;;;14.20;99.90;;;;;;4987580;28;20310;-92
2022/09/19 12:04:32;;;;;;;0.20;0.20;;;14.20;99.90;;;;;;4970880;28;20204;-90
2022/09/19 12:07:34;;;;;;;1.37;1.27;;;14.10;99.90;;;;;;4986243;28;20224;-90
2022/09/19 12:10:18;;;;;;;0.20;0.20;;;14.10;99.90;;;;;;4970174;28;20247;-92
2022/09/19 12:12:55;;;;;;;0.33;0.30;;;14.10;99.90;;;;;;4971521;28;20220;-91
2022/09/19 12:15:25;;;;;;;1.60;0.30;;;13.90;99.90;;;;;;4970817;28;20299;-91
2022/09/19 12:17:57;;;;;;;1.73;0.30;;;13.80;99.90;;;;;;4970428;28;20208;-91
2022/09/19 12:20:42;;;;;;;2.27;0.67;;;13.90;99.90;;;;;;4970434;28;20512;-90
2022/09/19 12:26:09;;;;;;;1.80;0.30;;;14.20;99.90;;;;;;4971318;28;20220;-91
2022/09/19 12:28:50;;;;;;;2.17;1.10;;;14.50;99.90;;;;;;4985657;28;20212;-89
2022/09/19 12:31:22;;;;;;;1.17;0.60;;;14.70;99.90;;;;;;4970544;28;20184;-91
2022/09/19 12:33:54;;;;;;;2.70;1.20;;;14.90;99.90;;;;;;4970633;28;20657;-91
2022/09/19 12:36:33;;;;;;;0.10;0.10;;;15.20;99.90;;;;;;4969809;28;20220;-91
2022/09/19 12:39:03;;;;;;;2.43;0.50;;;15.10;99.90;;;;;;4969054;28;20213;-90
2022/09/19 12:41:28;;;;;;;0.90;0.50;;;15.20;99.90;;;;;;4969921;28;20580;-91
2022/09/19 12:44:15;;;;;;;0.60;0.30;;;15.30;99.90;;;;;;4969608;28;20232;-92
2022/09/19 12:46:56;;;;;;;11.40;1.40;;;15.40;99.90;;;;;;4969886;28;20212;-91
2022/09/19 12:50:14;;;;;;;1.73;0.70;;;15.60;99.90;;;;;;4968948;28;20216;-91
2022/09/19 12:52:48;;;;;;;5.03;1.23;;;16.00;99.90;;;;;;4963064;28;20216;-91
2022/09/19 12:55:20;;;;;;;3.90;0.63;;;16.20;99.90;;;;;;4970495;28;20242;-91
2022/09/19 12:58:16;;;;;;;1.07;0.63;;;16.30;99.90;;;;;;4969969;28;20315;-91
2022/09/19 13:00:45;;;;;;;1.63;0.53;;;16.20;99.90;;;;;;4985428;28;20248;-91
2022/09/19 13:03:21;;;;;;;1.43;0.33;;;16.20;99.90;;;;;;4985590;28;20231;-91
2022/09/19 13:05:56;;;;;;;0.53;0.53;;;16.40;99.90;;;;;;4969268;28;20224;-91
2022/09/19 13:08:50;;;;;;;0.30;0.30;;;16.40;99.90;;;;;;4969005;28;20232;-91
2022/09/19 13:11:27;;;;;;;0.63;0.63;;;16.30;99.90;;;;;;4968935;28;20316;-90
2022/09/19 13:14:30;;;;;;;2.03;0.40;;;16.20;99.90;;;;;;4969301;28;20327;-91
2022/09/19 13:25:40;;;;;;;3.30;0.40;;;16.50;99.90;;;;;;4970190;28;21059;-91
2022/09/19 13:28:32;;;;;;;0.73;0.43;;;16.50;99.90;;;;;;4969500;28;20238;-90
2022/09/19 13:31:04;;;;;;;5.43;0.67;;;16.70;99.90;;;;;;4969238;28;20220;-91
2022/09/19 13:33:45;;;;;;;2.70;0.37;;;16.60;99.90;;;;;;4967952;28;20227;-89
2022/09/19 13:36:17;;;;;;;2.63;0.60;;;16.60;99.90;;;;;;4968087;28;20912;-90
2022/09/19 13:38:52;;;;;;;3.90;0.50;;;16.50;99.90;;;;;;4968983;28;20692;-89